createdAt,value
2017-07-14T00:00:00.944Z,0
2017-07-14T00:10:10.755Z,0
2017-07-14T00:20:20.605Z,0
2017-07-14T00:30:30.413Z,0
2017-07-14T00:40:40.245Z,0
2017-07-14T00:50:50.211Z,0
2017-07-14T01:01:00.207Z,0
2017-07-14T01:11:10.167Z,0
2017-07-14T01:21:20.106Z,0
2017-07-14T01:31:30.002Z,0
2017-07-14T01:41:39.947Z,0
2017-07-14T01:51:50.003Z,0
2017-07-14T02:02:00.089Z,0
2017-07-14T02:12:10.159Z,0
2017-07-14T02:22:20.181Z,0
2017-07-14T02:32:30.145Z,0
2017-07-14T02:42:40.138Z,4
2017-07-14T02:52:50.088Z,8
2017-07-14T03:02:59.993Z,28
2017-07-14T03:13:10.015Z,92
2017-07-14T03:23:20.073Z,248
2017-07-14T03:33:30.189Z,532
2017-07-14T03:43:40.339Z,964
2017-07-14T03:53:50.698Z,1568
2017-07-14T04:04:00.771Z,2236
2017-07-14T04:14:10.972Z,3736
2017-07-14T04:24:20.799Z,5316
2017-07-14T04:34:30.708Z,5440
2017-07-14T04:44:40.329Z,5548
2017-07-14T04:54:49.678Z,6552
2017-07-14T05:04:58.998Z,7040
2017-07-14T05:15:08.283Z,8044
2017-07-14T05:25:17.426Z,8936
2017-07-14T05:35:26.369Z,9832
2017-07-14T05:45:35.151Z,12864
2017-07-14T05:55:43.773Z,15320
2017-07-14T06:05:52.536Z,19328
2017-07-14T06:16:00.694Z,22944
2017-07-14T06:26:09.098Z,26976
2017-07-14T06:36:17.387Z,32416
2017-07-14T06:46:25.521Z,35584
2017-07-14T06:56:33.544Z,43136
2017-07-14T07:06:41.508Z,51200
2017-07-14T07:16:49.385Z,48928
2017-07-14T07:26:56.943Z,58816
2017-07-14T07:37:04.483Z,62912
2017-07-14T07:47:12.100Z,63680
2017-07-14T07:57:19.662Z,80832
2017-07-14T08:07:27.181Z,68672
2017-07-14T08:17:34.508Z,29632
2017-07-14T08:27:42.009Z,25824
2017-07-14T08:37:49.834Z,103328
2017-07-14T08:47:57.521Z,111904
2017-07-14T08:58:04.894Z,22784
2017-07-14T09:08:12.429Z,104800
2017-07-14T09:18:19.888Z,107360
2017-07-14T09:28:27.194Z,112640
2017-07-14T09:38:34.346Z,87808
2017-07-14T09:48:41.706Z,49184
2017-07-14T09:58:48.991Z,83840
2017-07-14T10:08:56.183Z,116704
2017-07-14T10:19:03.304Z,94688
2017-07-14T10:29:10.433Z,59136
2017-07-14T10:39:17.875Z,44928
2017-07-14T10:49:25.501Z,47168
2017-07-14T10:59:33.037Z,76736
2017-07-14T11:09:40.565Z,66496
2017-07-14T11:19:47.989Z,62496
2017-07-14T11:29:55.658Z,31776
2017-07-14T11:40:03.343Z,27712
2017-07-14T11:50:11.245Z,31520
2017-07-14T12:00:19.240Z,32288
2017-07-14T12:10:27.288Z,43232
2017-07-14T12:20:35.208Z,44544
2017-07-14T12:30:43.157Z,17248
2017-07-14T12:40:51.352Z,17888
2017-07-14T12:50:59.686Z,27232
2017-07-14T13:01:08.029Z,46688
2017-07-14T13:11:16.241Z,46880
2017-07-14T13:21:24.154Z,45504
2017-07-14T13:31:31.902Z,38624
2017-07-14T13:41:39.771Z,15584
2017-07-14T13:51:47.903Z,19616
2017-07-14T14:01:56.162Z,16668
2017-07-14T14:12:04.565Z,12876
2017-07-14T14:22:12.982Z,18976
2017-07-14T14:28:41.196Z,14824
2017-07-14T14:29:24.086Z,14264
2017-07-14T14:33:06.498Z,12456
2017-07-14T14:33:28.785Z,12352
2017-07-14T14:34:04.942Z,12528
2017-07-14T14:34:32.106Z,12744
2017-07-14T14:34:50.485Z,12796
2017-07-14T14:43:02.879Z,12296
